sensor_id;sensor_type;location;lat;lon;timestamp;pressure;altitude;pressure_sealevel;temperature;humidity
32875;BME280;40468;42.128;24.750;2024-03-23T00:54:18;99876.91;;;8.19;49.08
32875;BME280;40468;42.128;24.750;2024-03-23T00:55:50;99883.03;;;8.18;49.46
32875;BME280;40468;42.128;24.750;2024-03-23T00:57:21;99881.38;;;8.15;49.64
32875;BME280;40468;42.128;24.750;2024-03-23T00:58:51;99882.28;;;8.14;49.67
32875;BME280;40468;42.128;24.750;2024-03-23T01:00:23;99881.59;;;8.09;49.71
32875;BME280;40468;42.128;24.750;2024-03-23T01:01:54;99880.63;;;8.12;49.73
32875;BME280;40468;42.128;24.750;2024-03-23T01:03:25;99878.16;;;8.09;49.89
32875;BME280;40468;42.128;24.750;2024-03-23T01:04:57;99877.41;;;8.05;49.97
32875;BME280;40468;42.128;24.750;2024-03-23T01:06:28;99871.09;;;7.87;50.28
32875;BME280;40468;42.128;24.750;2024-03-23T01:08:00;99878.41;;;7.74;50.70
32875;BME280;40468;42.128;24.750;2024-03-23T01:09:32;99874.66;;;7.57;51.25
32875;BME280;40468;42.128;24.750;2024-03-23T01:11:03;99874.28;;;7.41;51.54
32875;BME280;40468;42.128;24.750;2024-03-23T01:12:35;99870.34;;;7.29;51.76
32875;BME280;40468;42.128;24.750;2024-03-23T01:14:06;99871.34;;;7.25;51.80
32875;BME280;40468;42.128;24.750;2024-03-23T01:15:37;99872.41;;;7.18;52.10
32875;BME280;40468;42.128;24.750;2024-03-23T01:17:09;99876.00;;;7.12;52.17
32875;BME280;40468;42.128;24.750;2024-03-23T01:18:39;99865.94;;;7.03;52.58
32875;BME280;40468;42.128;24.750;2024-03-23T01:20:10;99873.97;;;6.94;52.68
32875;BME280;40468;42.128;24.750;2024-03-23T01:21:42;99873.25;;;6.89;52.94
32875;BME280;40468;42.128;24.750;2024-03-23T01:23:13;99869.34;;;6.74;53.04
32875;BME280;40468;42.128;24.750;2024-03-23T01:24:46;99866.03;;;6.70;53.28
32875;BME280;40468;42.128;24.750;2024-03-23T01:26:17;99880.03;;;6.63;53.49
32875;BME280;40468;42.128;24.750;2024-03-23T01:27:48;99884.59;;;6.53;53.74
32875;BME280;40468;42.128;24.750;2024-03-23T01:29:20;99883.03;;;6.48;53.97
32875;BME280;40468;42.128;24.750;2024-03-23T01:30:51;99883.88;;;6.48;53.75
32875;BME280;40468;42.128;24.750;2024-03-23T01:32:22;99882.91;;;6.52;53.66
32875;BME280;40468;42.128;24.750;2024-03-23T01:33:54;99873.28;;;6.57;53.48
32875;BME280;40468;42.128;24.750;2024-03-23T01:35:24;99874.84;;;6.63;53.41
32875;BME280;40468;42.128;24.750;2024-03-23T01:36:55;99871.34;;;6.66;53.45
32875;BME280;40468;42.128;24.750;2024-03-23T01:38:27;99865.34;;;6.64;53.40
32875;BME280;40468;42.128;24.750;2024-03-23T01:39:59;99875.63;;;6.67;53.31
32875;BME280;40468;42.128;24.750;2024-03-23T01:41:30;99873.88;;;6.67;53.18
32875;BME280;40468;42.128;24.750;2024-03-23T01:43:03;99864.19;;;6.74;52.96
32875;BME280;40468;42.128;24.750;2024-03-23T01:44:35;99876.16;;;6.78;52.81
32875;BME280;40468;42.128;24.750;2024-03-23T01:46:07;99874.28;;;6.83;52.65
32875;BME280;40468;42.128;24.750;2024-03-23T01:47:38;99878.44;;;6.89;52.62
32875;BME280;40468;42.128;24.750;2024-03-23T01:49:09;99877.50;;;6.91;52.55
32875;BME280;40468;42.128;24.750;2024-03-23T01:50:41;99868.84;;;6.92;52.51
32875;BME280;40468;42.128;24.750;2024-03-23T01:52:12;99870.53;;;6.93;52.57
32875;BME280;40468;42.128;24.750;2024-03-23T01:53:43;99864.56;;;6.91;52.40
32875;BME280;40468;42.128;24.750;2024-03-23T01:55:16;99872.19;;;6.96;52.59
32875;BME280;40468;42.128;24.750;2024-03-23T01:56:47;99878.16;;;6.98;52.48
32875;BME280;40468;42.128;24.750;2024-03-23T01:58:19;99872.97;;;6.98;52.58
32875;BME280;40468;42.128;24.750;2024-03-23T01:59:50;99882.31;;;7.03;52.50
32875;BME280;40468;42.128;24.750;2024-03-23T02:01:21;99878.00;;;7.04;52.72
32875;BME280;40468;42.128;24.750;2024-03-23T02:02:53;99870.34;;;6.99;52.56
32875;BME280;40468;42.128;24.750;2024-03-23T02:04:24;99877.19;;;7.02;52.69
32875;BME280;40468;42.128;24.750;2024-03-23T02:05:54;99877.19;;;7.02;52.72
32875;BME280;40468;42.128;24.750;2024-03-23T02:07:27;99882.38;;;7.02;52.69
32875;BME280;40468;42.128;24.750;2024-03-23T02:08:58;99874.59;;;7.02;52.68
32875;BME280;40468;42.128;24.750;2024-03-23T02:10:31;99871.09;;;7.03;52.74
32875;BME280;40468;42.128;24.750;2024-03-23T02:12:03;99879.72;;;7.03;52.90
32875;BME280;40468;42.128;24.750;2024-03-23T02:13:35;99869.47;;;7.00;52.84
32875;BME280;40468;42.128;24.750;2024-03-23T02:15:06;99815.16;;;6.69;52.90
32875;BME280;40468;42.128;24.750;2024-03-23T02:16:39;99854.19;;;6.91;52.95
32875;BME280;40468;42.128;24.750;2024-03-23T02:18:10;99874.50;;;7.05;52.88
32875;BME280;40468;42.128;24.750;2024-03-23T02:19:41;99864.09;;;7.06;52.94
32875;BME280;40468;42.128;24.750;2024-03-23T02:21:12;99869.25;;;7.08;52.97
32875;BME280;40468;42.128;24.750;2024-03-23T02:22:43;99873.59;;;7.07;52.94
32875;BME280;40468;42.128;24.750;2024-03-23T02:24:15;99863.31;;;7.04;52.92
32875;BME280;40468;42.128;24.750;2024-03-23T02:25:47;99875.31;;;7.07;53.00
32875;BME280;40468;42.128;24.750;2024-03-23T02:27:18;99862.47;;;7.04;52.95
32875;BME280;40468;42.128;24.750;2024-03-23T02:28:50;99841.16;;;6.94;53.08
32875;BME280;40468;42.128;24.750;2024-03-23T02:30:21;99870.94;;;7.09;53.04
32875;BME280;40468;42.128;24.750;2024-03-23T02:31:51;99863.31;;;7.04;53.15
32875;BME280;40468;42.128;24.750;2024-03-23T02:33:23;99870.09;;;7.09;53.02
32875;BME280;40468;42.128;24.750;2024-03-23T02:34:54;99870.94;;;7.09;53.10
32875;BME280;40468;42.128;24.750;2024-03-23T02:36:25;99864.88;;;7.10;53.03
32875;BME280;40468;42.128;24.750;2024-03-23T02:37:57;99865.72;;;7.11;53.05
32875;BME280;40468;42.128;24.750;2024-03-23T02:39:29;99869.09;;;7.13;53.17
32875;BME280;40468;42.128;24.750;2024-03-23T02:41:02;99831.06;;;6.87;53.06
32875;BME280;40468;42.128;24.750;2024-03-23T02:42:33;99869.97;;;7.13;52.95
32875;BME280;40468;42.128;24.750;2024-03-23T02:44:05;99865.63;;;7.14;52.92
32875;BME280;40468;42.128;24.750;2024-03-23T02:45:36;99862.22;;;7.12;53.04
32875;BME280;40468;42.128;24.750;2024-03-23T02:47:07;99866.50;;;7.13;53.13
32875;BME280;40468;42.128;24.750;2024-03-23T02:48:39;99861.38;;;7.11;53.17
32875;BME280;40468;42.128;24.750;2024-03-23T02:50:10;99866.41;;;7.16;53.22
32875;BME280;40468;42.128;24.750;2024-03-23T02:51:41;99863.78;;;7.17;53.18
32875;BME280;40468;42.128;24.750;2024-03-23T02:53:15;99861.19;;;7.17;53.24
32875;BME280;40468;42.128;24.750;2024-03-23T02:54:47;99858.59;;;7.17;53.32
32875;BME280;40468;42.128;24.750;2024-03-23T02:56:18;99860.34;;;7.17;53.29
32875;BME280;40468;42.128;24.750;2024-03-23T02:57:50;99861.22;;;7.16;53.24
32875;BME280;40468;42.128;24.750;2024-03-23T02:59:21;99865.53;;;7.17;53.35
32875;BME280;40468;42.128;24.750;2024-03-23T03:00:52;99869.81;;;7.18;53.30
32875;BME280;40468;42.128;24.750;2024-03-23T03:02:23;99865.47;;;7.18;53.41
32875;BME280;40468;42.128;24.750;2024-03-23T03:03:54;99866.34;;;7.19;53.32
32875;BME280;40468;42.128;24.750;2024-03-23T03:05:25;99869.81;;;7.18;53.24
32875;BME280;40468;42.128;24.750;2024-03-23T03:06:57;99868.22;;;7.14;53.31
32875;BME280;40468;42.128;24.750;2024-03-23T03:08:28;99860.38;;;7.15;53.28
32875;BME280;40468;42.128;24.750;2024-03-23T03:10:00;99868.13;;;7.17;53.21
32875;BME280;40468;42.128;24.750;2024-03-23T03:11:32;99865.13;;;7.01;53.25
32875;BME280;40468;42.128;24.750;2024-03-23T03:13:03;99859.91;;;7.02;53.42
32875;BME280;40468;42.128;24.750;2024-03-23T03:14:34;99856.31;;;7.06;53.12
32875;BME280;40468;42.128;24.750;2024-03-23T03:16:08;99857.28;;;7.04;53.30
32875;BME280;40468;42.128;24.750;2024-03-23T03:17:40;99859.78;;;7.07;53.17
32875;BME280;40468;42.128;24.750;2024-03-23T03:19:11;99859.81;;;7.05;53.18
32875;BME280;40468;42.128;24.750;2024-03-23T03:20:42;99856.31;;;7.06;53.20
32875;BME280;40468;42.128;24.750;2024-03-23T03:22:14;99864.19;;;7.03;53.22
32875;BME280;40468;42.128;24.750;2024-03-23T03:23:45;99857.28;;;7.04;53.29
32875;BME280;40468;42.128;24.750;2024-03-23T03:25:17;99853.97;;;6.99;53.20
32875;BME280;40468;42.128;24.750;2024-03-23T03:26:49;99854.72;;;7.02;53.34
32875;BME280;40468;42.128;24.750;2024-03-23T03:28:20;99775.94;;;6.53;53.47
32875;BME280;40468;42.128;24.750;2024-03-23T03:29:51;99860.81;;;7.01;53.40
32875;BME280;40468;42.128;24.750;2024-03-23T03:31:23;99862.53;;;7.01;53.33
32875;BME280;40468;42.128;24.750;2024-03-23T03:32:54;99858.31;;;6.98;53.26
32875;BME280;40468;42.128;24.750;2024-03-23T03:34:25;99855.00;;;6.93;53.33
32875;BME280;40468;42.128;24.750;2024-03-23T03:35:56;99861.78;;;6.97;53.40
32875;BME280;40468;42.128;24.750;2024-03-23T03:37:27;99869.59;;;6.96;53.28
32875;BME280;40468;42.128;24.750;2024-03-23T03:38:58;99867.06;;;6.94;53.34
32875;BME280;40468;42.128;24.750;2024-03-23T03:40:31;99861.09;;;6.92;53.29
32875;BME280;40468;42.128;24.750;2024-03-23T03:42:02;99865.38;;;6.93;53.31
32875;BME280;40468;42.128;24.750;2024-03-23T03:43:37;99869.69;;;6.93;53.42
32875;BME280;40468;42.128;24.750;2024-03-23T03:45:08;99872.28;;;6.93;53.46
32875;BME280;40468;42.128;24.750;2024-03-23T03:46:39;99868.84;;;6.92;53.41
32875;BME280;40468;42.128;24.750;2024-03-23T03:48:11;99869.78;;;6.90;53.40
32875;BME280;40468;42.128;24.750;2024-03-23T03:49:41;99872.41;;;6.88;53.42
32875;BME280;40468;42.128;24.750;2024-03-23T03:51:12;99789.38;;;6.35;53.55
32875;BME280;40468;42.128;24.750;2024-03-23T03:52:44;99869.09;;;6.83;53.55
32875;BME280;40468;42.128;24.750;2024-03-23T03:54:15;99881.91;;;6.88;53.53
32875;BME280;40468;42.128;24.750;2024-03-23T03:55:47;99858.88;;;6.78;53.64
32875;BME280;40468;42.128;24.750;2024-03-23T03:57:19;99880.25;;;6.85;53.63
32875;BME280;40468;42.128;24.750;2024-03-23T03:58:50;99874.28;;;6.83;53.56
32875;BME280;40468;42.128;24.750;2024-03-23T04:00:21;99871.78;;;6.80;53.65
32875;BME280;40468;42.128;24.750;2024-03-23T04:01:53;99880.31;;;6.83;53.74
32875;BME280;40468;42.128;24.750;2024-03-23T04:03:23;99876.91;;;6.81;53.60
32875;BME280;40468;42.128;24.750;2024-03-23T04:04:55;99876.94;;;6.80;53.63
32875;BME280;40468;42.128;24.750;2024-03-23T04:06:26;99884.72;;;6.80;53.60
32875;BME280;40468;42.128;24.750;2024-03-23T04:07:57;99866.88;;;6.71;53.63
32875;BME280;40468;42.128;24.750;2024-03-23T04:09:29;99882.19;;;6.78;53.70
32875;BME280;40468;42.128;24.750;2024-03-23T04:11:02;99880.50;;;6.77;53.48
32875;BME280;40468;42.128;24.750;2024-03-23T04:12:34;99885.72;;;6.74;53.38
32875;BME280;40468;42.128;24.750;2024-03-23T04:14:04;99887.53;;;6.72;53.35
32875;BME280;40468;42.128;24.750;2024-03-23T04:15:35;99878.13;;;6.70;53.32
32875;BME280;40468;42.128;24.750;2024-03-23T04:17:07;99893.47;;;6.76;53.22
32875;BME280;40468;42.128;24.750;2024-03-23T04:18:38;99883.13;;;6.76;53.23
32875;BME280;40468;42.128;24.750;2024-03-23T04:20:10;99884.94;;;6.72;53.09
32875;BME280;40468;42.128;24.750;2024-03-23T04:21:47;99896.97;;;6.75;53.20
32875;BME280;40468;42.128;24.750;2024-03-23T04:23:18;99890.06;;;6.74;53.12
32875;BME280;40468;42.128;24.750;2024-03-23T04:24:49;99890.06;;;6.74;53.13
32875;BME280;40468;42.128;24.750;2024-03-23T04:26:22;99887.47;;;6.74;52.96
32875;BME280;40468;42.128;24.750;2024-03-23T04:27:52;99891.91;;;6.70;53.12
32875;BME280;40468;42.128;24.750;2024-03-23T04:29:24;99892.91;;;6.65;53.16
32875;BME280;40468;42.128;24.750;2024-03-23T04:30:57;99893.91;;;6.60;53.05
32875;BME280;40468;42.128;24.750;2024-03-23T04:32:28;99900.84;;;6.58;53.18
32875;BME280;40468;42.128;24.750;2024-03-23T04:33:59;99897.50;;;6.55;53.26
32875;BME280;40468;42.128;24.750;2024-03-23T04:35:30;99897.53;;;6.53;53.35
32875;BME280;40468;42.128;24.750;2024-03-23T04:37:02;99897.59;;;6.50;53.21
32875;BME280;40468;42.128;24.750;2024-03-23T04:38:35;99898.69;;;6.43;53.36
32875;BME280;40468;42.128;24.750;2024-03-23T04:40:07;99904.75;;;6.42;53.30
32875;BME280;40468;42.128;24.750;2024-03-23T04:41:39;99912.50;;;6.42;53.52
32875;BME280;40468;42.128;24.750;2024-03-23T04:43:11;99911.78;;;6.37;53.49
32875;BME280;40468;42.128;24.750;2024-03-23T04:44:42;99899.84;;;6.31;53.48
32875;BME280;40468;42.128;24.750;2024-03-23T04:46:14;99905.13;;;6.27;53.65
32875;BME280;40468;42.128;24.750;2024-03-23T04:47:46;99902.53;;;6.27;53.63
32875;BME280;40468;42.128;24.750;2024-03-23T04:49:17;99908.59;;;6.26;53.66
32875;BME280;40468;42.128;24.750;2024-03-23T04:50:48;99900.13;;;6.21;53.78
32875;BME280;40468;42.128;24.750;2024-03-23T04:52:20;99908.69;;;6.23;53.69
32875;BME280;40468;42.128;24.750;2024-03-23T04:53:51;99911.28;;;6.23;53.68
32875;BME280;40468;42.128;24.750;2024-03-23T04:55:23;99913.03;;;6.22;53.71
32875;BME280;40468;42.128;24.750;2024-03-23T04:56:56;99903.59;;;6.20;53.80
32875;BME280;40468;42.128;24.750;2024-03-23T04:58:27;99909.09;;;6.06;53.93
32875;BME280;40468;42.128;24.750;2024-03-23T04:59:58;99908.16;;;6.10;53.96
32875;BME280;40468;42.128;24.750;2024-03-23T05:01:29;99903.00;;;6.10;53.93
32875;BME280;40468;42.128;24.750;2024-03-23T05:03:01;99909.00;;;6.10;53.96
32875;BME280;40468;42.128;24.750;2024-03-23T05:04:32;99902.16;;;6.09;53.97
32875;BME280;40468;42.128;24.750;2024-03-23T05:06:04;99909.84;;;6.11;53.94
32875;BME280;40468;42.128;24.750;2024-03-23T05:07:36;99909.00;;;6.10;53.99
32875;BME280;40468;42.128;24.750;2024-03-23T05:09:06;99909.91;;;6.09;54.05
32875;BME280;40468;42.128;24.750;2024-03-23T05:10:42;99908.16;;;6.10;53.97
32875;BME280;40468;42.128;24.750;2024-03-23T05:12:14;99912.41;;;6.12;53.79
32875;BME280;40468;42.128;24.750;2024-03-23T05:13:45;99905.53;;;6.11;53.91
32875;BME280;40468;42.128;24.750;2024-03-23T05:15:17;99904.59;;;6.14;54.00
32875;BME280;40468;42.128;24.750;2024-03-23T05:16:47;99903.69;;;6.15;53.99
32875;BME280;40468;42.128;24.750;2024-03-23T05:18:18;99908.00;;;6.16;53.93
32875;BME280;40468;42.128;24.750;2024-03-23T05:19:50;99901.13;;;6.15;53.95
32875;BME280;40468;42.128;24.750;2024-03-23T05:21:21;99903.69;;;6.17;53.95
32875;BME280;40468;42.128;24.750;2024-03-23T05:22:52;99904.56;;;6.15;54.07
32875;BME280;40468;42.128;24.750;2024-03-23T05:24:23;99898.59;;;6.13;53.97
32875;BME280;40468;42.128;24.750;2024-03-23T05:25:55;99843.47;;;5.77;53.90
32875;BME280;40468;42.128;24.750;2024-03-23T05:27:27;99901.13;;;6.15;53.97
32875;BME280;40468;42.128;24.750;2024-03-23T05:28:59;99888.25;;;6.13;54.07
32875;BME280;40468;42.128;24.750;2024-03-23T05:30:29;99902.00;;;6.14;54.07
32875;BME280;40468;42.128;24.750;2024-03-23T05:32:00;99902.06;;;6.12;54.04
32875;BME280;40468;42.128;24.750;2024-03-23T05:33:32;99901.25;;;6.10;54.04
32875;BME280;40468;42.128;24.750;2024-03-23T05:35:03;99840.09;;;5.74;53.97
32875;BME280;40468;42.128;24.750;2024-03-23T05:36:34;99902.06;;;6.12;54.10
32875;BME280;40468;42.128;24.750;2024-03-23T05:38:06;99900.31;;;6.13;54.03
32875;BME280;40468;42.128;24.750;2024-03-23T05:39:37;99901.19;;;6.12;54.00
32875;BME280;40468;42.128;24.750;2024-03-23T05:41:09;99902.91;;;6.13;54.08
32875;BME280;40468;42.128;24.750;2024-03-23T05:42:41;99891.72;;;6.12;54.19
32875;BME280;40468;42.128;24.750;2024-03-23T05:44:13;99897.81;;;6.10;54.38
32875;BME280;40468;42.128;24.750;2024-03-23T05:45:45;99894.22;;;6.15;54.45
32875;BME280;40468;42.128;24.750;2024-03-23T05:47:16;99900.16;;;6.19;54.44
32875;BME280;40468;42.128;24.750;2024-03-23T05:48:48;99892.34;;;6.21;54.42
32875;BME280;40468;42.128;24.750;2024-03-23T05:50:19;99897.38;;;6.27;54.03
32875;BME280;40468;42.128;24.750;2024-03-23T05:51:50;99902.50;;;6.28;54.07
32875;BME280;40468;42.128;24.750;2024-03-23T05:53:21;99876.84;;;6.21;53.91
32875;BME280;40468;42.128;24.750;2024-03-23T05:54:52;99891.06;;;6.37;53.85
32875;BME280;40468;42.128;24.750;2024-03-23T05:56:23;99896.09;;;6.43;53.86
32875;BME280;40468;42.128;24.750;2024-03-23T05:57:57;99891.50;;;6.53;53.61
32875;BME280;40468;42.128;24.750;2024-03-23T05:59:30;99893.81;;;6.64;53.52
32875;BME280;40468;42.128;24.750;2024-03-23T06:01:02;99896.09;;;6.74;53.25
32875;BME280;40468;42.128;24.750;2024-03-23T06:02:34;99855.28;;;6.53;53.07
32875;BME280;40468;42.128;24.750;2024-03-23T06:04:05;99885.41;;;6.87;52.78
32875;BME280;40468;42.128;24.750;2024-03-23T06:05:35;99835.19;;;6.63;52.82
32875;BME280;40468;42.128;24.750;2024-03-23T06:07:07;99886.72;;;7.01;52.45
32875;BME280;40468;42.128;24.750;2024-03-23T06:08:44;99892.47;;;7.11;52.46
32875;BME280;40468;42.128;24.750;2024-03-23T06:10:15;99894.78;;;7.20;52.16
32875;BME280;40468;42.128;24.750;2024-03-23T06:11:46;99896.25;;;7.29;52.17
32875;BME280;40468;42.128;24.750;2024-03-23T06:13:20;99896.88;;;7.37;51.92
32875;BME280;40468;42.128;24.750;2024-03-23T06:14:55;99887.19;;;7.42;51.92
32875;BME280;40468;42.128;24.750;2024-03-23T06:16:27;99897.31;;;7.50;51.88
32875;BME280;40468;42.128;24.750;2024-03-23T06:17:58;99885.13;;;7.53;51.55
32875;BME280;40468;42.128;24.750;2024-03-23T06:19:29;99895.16;;;7.64;51.36
32875;BME280;40468;42.128;24.750;2024-03-23T06:21:00;99889.69;;;7.73;51.21
32875;BME280;40468;42.128;24.750;2024-03-23T06:22:31;99886.16;;;7.74;50.99
32875;BME280;40468;42.128;24.750;2024-03-23T06:24:04;99890.22;;;7.83;50.92
32875;BME280;40468;42.128;24.750;2024-03-23T06:25:35;99891.72;;;7.90;50.71
32875;BME280;40468;42.128;24.750;2024-03-23T06:27:06;99879.53;;;7.92;50.49
32875;BME280;40468;42.128;24.750;2024-03-23T06:28:39;99891.22;;;8.06;50.42
32875;BME280;40468;42.128;24.750;2024-03-23T06:30:12;99877.25;;;8.10;50.21
32875;BME280;40468;42.128;24.750;2024-03-23T06:31:42;99779.69;;;7.56;50.10
32875;BME280;40468;42.128;24.750;2024-03-23T06:33:14;99887.63;;;8.35;50.14
32875;BME280;40468;42.128;24.750;2024-03-23T06:34:45;99890.78;;;8.45;49.93
32875;BME280;40468;42.128;24.750;2024-03-23T06:36:17;99887.75;;;8.57;49.58
32875;BME280;40468;42.128;24.750;2024-03-23T06:37:50;99894.31;;;8.67;49.52
32875;BME280;40468;42.128;24.750;2024-03-23T06:39:21;99886.94;;;8.80;49.61
32875;BME280;40468;42.128;24.750;2024-03-23T06:40:52;99891.63;;;8.94;49.51
32875;BME280;40468;42.128;24.750;2024-03-23T06:42:23;99888.56;;;9.06;49.11
32875;BME280;40468;42.128;24.750;2024-03-23T06:43:56;99888.22;;;9.15;48.63
32875;BME280;40468;42.128;24.750;2024-03-23T06:45:27;99888.78;;;9.23;48.63
32875;BME280;40468;42.128;24.750;2024-03-23T06:46:59;99888.31;;;9.36;48.43
32875;BME280;40468;42.128;24.750;2024-03-23T06:48:30;99890.34;;;9.49;48.25
32875;BME280;40468;42.128;24.750;2024-03-23T06:50:03;99886.53;;;9.80;47.64
32875;BME280;40468;42.128;24.750;2024-03-23T06:51:34;99888.81;;;10.51;46.94
32875;BME280;40468;42.128;24.750;2024-03-23T06:53:05;99880.31;;;11.60;44.22
32875;BME280;40468;42.128;24.750;2024-03-23T06:54:37;99871.28;;;12.72;42.20
32875;BME280;40468;42.128;24.750;2024-03-23T06:56:07;99880.72;;;13.85;39.94
32875;BME280;40468;42.128;24.750;2024-03-23T06:57:38;99868.72;;;14.85;38.26
32875;BME280;40468;42.128;24.750;2024-03-23T06:59:14;99874.25;;;15.77;36.77
32875;BME280;40468;42.128;24.750;2024-03-23T07:00:45;99845.22;;;16.44;35.36
32875;BME280;40468;42.128;24.750;2024-03-23T07:02:16;99868.59;;;17.24;34.35
32875;BME280;40468;42.128;24.750;2024-03-23T07:03:48;99877.25;;;17.74;33.50
32875;BME280;40468;42.128;24.750;2024-03-23T07:05:19;99876.25;;;18.23;32.82
32875;BME280;40468;42.128;24.750;2024-03-23T07:06:50;99870.69;;;18.73;31.99
32875;BME280;40468;42.128;24.750;2024-03-23T07:08:22;99877.06;;;19.15;31.30
32875;BME280;40468;42.128;24.750;2024-03-23T07:09:53;99870.59;;;19.51;30.55
32875;BME280;40468;42.128;24.750;2024-03-23T07:11:24;99871.72;;;19.81;30.08
32875;BME280;40468;42.128;24.750;2024-03-23T07:12:56;99867.25;;;20.14;29.67
32875;BME280;40468;42.128;24.750;2024-03-23T07:14:28;99865.31;;;20.37;29.48
32875;BME280;40468;42.128;24.750;2024-03-23T07:16:00;99863.13;;;20.63;29.02
32875;BME280;40468;42.128;24.750;2024-03-23T07:17:31;99860.22;;;20.76;28.53
32875;BME280;40468;42.128;24.750;2024-03-23T07:19:03;99856.56;;;20.98;28.37
32875;BME280;40468;42.128;24.750;2024-03-23T07:20:35;99857.44;;;21.18;28.11
32875;BME280;40468;42.128;24.750;2024-03-23T07:22:06;99853.22;;;21.36;27.89
32875;BME280;40468;42.128;24.750;2024-03-23T07:23:37;99850.84;;;21.52;27.28
32875;BME280;40468;42.128;24.750;2024-03-23T07:25:12;99860.75;;;21.70;27.43
32875;BME280;40468;42.128;24.750;2024-03-23T07:26:43;99856.59;;;21.87;27.26
32875;BME280;40468;42.128;24.750;2024-03-23T07:28:15;99862.72;;;22.07;26.65
32875;BME280;40468;42.128;24.750;2024-03-23T07:29:47;99861.03;;;22.06;26.50
32875;BME280;40468;42.128;24.750;2024-03-23T07:31:18;99855.16;;;22.12;26.45
32875;BME280;40468;42.128;24.750;2024-03-23T07:32:50;99852.50;;;22.12;26.50
32875;BME280;40468;42.128;24.750;2024-03-23T07:34:21;99850.13;;;22.09;26.08
32875;BME280;40468;42.128;24.750;2024-03-23T07:35:53;99849.56;;;22.15;26.12
32875;BME280;40468;42.128;24.750;2024-03-23T07:37:24;99842.16;;;22.09;26.00
32875;BME280;40468;42.128;24.750;2024-03-23T07:38:56;99845.09;;;22.06;26.24
32875;BME280;40468;42.128;24.750;2024-03-23T07:40:28;99851.97;;;21.98;26.50
32875;BME280;40468;42.128;24.750;2024-03-23T07:41:58;99840.09;;;22.02;26.56
32875;BME280;40468;42.128;24.750;2024-03-23T07:43:29;99842.03;;;22.00;26.46
32875;BME280;40468;42.128;24.750;2024-03-23T07:45:03;99839.84;;;21.86;26.42
32875;BME280;40468;42.128;24.750;2024-03-23T07:46:34;99839.28;;;21.92;26.41
32875;BME280;40468;42.128;24.750;2024-03-23T07:48:06;99838.44;;;21.92;26.69
32875;BME280;40468;42.128;24.750;2024-03-23T07:49:37;99835.09;;;21.80;26.23
32875;BME280;40468;42.128;24.750;2024-03-23T07:51:09;99839.16;;;21.74;26.53
32875;BME280;40468;42.128;24.750;2024-03-23T07:53:17;99834.13;;;21.71;26.80
32875;BME280;40468;42.128;24.750;2024-03-23T07:54:48;99825.47;;;21.60;26.50
32875;BME280;40468;42.128;24.750;2024-03-23T07:56:19;99826.31;;;21.50;26.71
32875;BME280;40468;42.128;24.750;2024-03-23T07:57:51;99830.06;;;21.38;27.09
32875;BME280;40468;42.128;24.750;2024-03-23T07:59:24;99824.59;;;21.30;26.78
32875;BME280;40468;42.128;24.750;2024-03-23T08:01:03;99735.00;;;20.56;27.06
32875;BME280;40468;42.128;24.750;2024-03-23T08:02:34;99817.81;;;20.97;27.26
32875;BME280;40468;42.128;24.750;2024-03-23T08:04:05;99821.28;;;20.87;27.64
32875;BME280;40468;42.128;24.750;2024-03-23T08:05:37;99827.25;;;20.80;27.82
32875;BME280;40468;42.128;24.750;2024-03-23T08:07:08;99822.44;;;20.64;27.62
32875;BME280;40468;42.128;24.750;2024-03-23T08:08:40;99814.47;;;20.54;28.10
32875;BME280;40468;42.128;24.750;2024-03-23T08:10:12;99816.84;;;20.57;27.74
32875;BME280;40468;42.128;24.750;2024-03-23T08:11:43;99816.75;;;20.59;27.91
32875;BME280;40468;42.128;24.750;2024-03-23T08:13:17;99811.72;;;20.56;27.88
32875;BME280;40468;42.128;24.750;2024-03-23T08:14:48;99815.69;;;20.50;27.69
32875;BME280;40468;42.128;24.750;2024-03-23T08:16:20;99814.53;;;20.43;27.73
32875;BME280;40468;42.128;24.750;2024-03-23T08:17:52;99800.69;;;20.30;27.94
32875;BME280;40468;42.128;24.750;2024-03-23T08:19:23;99809.16;;;20.23;28.04
32875;BME280;40468;42.128;24.750;2024-03-23T08:20:57;99804.75;;;20.34;28.21
32875;BME280;40468;42.128;24.750;2024-03-23T08:22:29;99805.97;;;20.30;27.83
32875;BME280;40468;42.128;24.750;2024-03-23T08:24:00;99806.38;;;20.25;27.78
32875;BME280;40468;42.128;24.750;2024-03-23T08:25:32;99790.91;;;20.20;27.71
32875;BME280;40468;42.128;24.750;2024-03-23T08:27:03;99792.69;;;20.20;27.63
32875;BME280;40468;42.128;24.750;2024-03-23T08:28:35;99794.13;;;20.24;27.43
32875;BME280;40468;42.128;24.750;2024-03-23T08:30:07;99797.34;;;20.28;27.62
32875;BME280;40468;42.128;24.750;2024-03-23T08:31:40;99741.09;;;19.95;27.29
32875;BME280;40468;42.128;24.750;2024-03-23T08:33:11;99790.31;;;20.17;27.33
32875;BME280;40468;42.128;24.750;2024-03-23T08:34:42;99749.72;;;19.97;27.46
32875;BME280;40468;42.128;24.750;2024-03-23T08:36:13;99780.50;;;20.29;27.36
32875;BME280;40468;42.128;24.750;2024-03-23T08:37:45;99779.69;;;20.38;27.22
32875;BME280;40468;42.128;24.750;2024-03-23T08:39:17;99780.31;;;20.51;27.24
32875;BME280;40468;42.128;24.750;2024-03-23T08:40:56;99781.13;;;20.73;27.14
32875;BME280;40468;42.128;24.750;2024-03-23T08:42:27;99774.44;;;20.78;26.87
32875;BME280;40468;42.128;24.750;2024-03-23T08:43:58;99777.81;;;20.80;26.98
32875;BME280;40468;42.128;24.750;2024-03-23T08:45:30;99770.25;;;20.76;26.47
32875;BME280;40468;42.128;24.750;2024-03-23T08:47:03;99768.69;;;20.63;26.59
32875;BME280;40468;42.128;24.750;2024-03-23T08:48:34;99770.06;;;20.58;26.86
32875;BME280;40468;42.128;24.750;2024-03-23T08:50:07;99765.44;;;20.50;26.72
32875;BME280;40468;42.128;24.750;2024-03-23T08:51:38;99764.22;;;20.54;26.80
32875;BME280;40468;42.128;24.750;2024-03-23T08:53:09;99721.78;;;20.35;26.47
32875;BME280;40468;42.128;24.750;2024-03-23T08:54:41;99760.09;;;20.71;26.81
32875;BME280;40468;42.128;24.750;2024-03-23T08:56:12;99759.00;;;20.74;26.71
32875;BME280;40468;42.128;24.750;2024-03-23T08:57:44;99755.09;;;20.78;26.40